Time;durP1;ratioP1;P1;durP2;ratioP2;P2;SDS_P1;SDS_P2;PMS_P1;PMS_P2;Temp;Humidity;BMP_temperature;BMP_pressure;BME280_temperature;BME280_humidity;BME280_pressure;Samples;Min_cycle;Max_cycle;Signal;HPM_P1;HPM_P2
2022/04/30 00:00:09;;;;;;;5.38;2.65;;;;;;;;;;5002410;28;20014;-64
2022/04/30 00:02:35;;;;;;;4.55;2.50;;;;;;;;;;5003915;28;20157;-65
2022/04/30 00:05:02;;;;;;;7.78;2.53;;;;;;;;;;5002047;28;20106;-65
2022/04/30 00:07:27;;;;;;;7.40;2.97;;;;;;;;;;5001839;28;20482;-65
2022/04/30 00:09:53;;;;;;;6.22;2.50;;;;;;;;;;5003805;28;20060;-64
2022/04/30 00:12:18;;;;;;;5.78;2.45;;;;;;;;;;5001594;28;20029;-65
2022/04/30 00:14:46;;;;;;;4.90;2.50;;;;;;;;;;5003070;28;20022;-64
2022/04/30 00:17:15;;;;;;;7.95;2.80;;;;;;;;;;5003418;28;20349;-65
2022/04/30 00:19:40;;;;;;;5.90;2.25;;;;;;;;;;5001538;28;20542;-63
2022/04/30 00:22:06;;;;;;;5.57;2.30;;;;;;;;;;5004293;28;20070;-64
2022/04/30 00:24:31;;;;;;;6.32;2.20;;;;;;;;;;5004718;28;20046;-64
2022/04/30 00:26:59;;;;;;;7.20;2.67;;;;;;;;;;5003636;28;20036;-64
2022/04/30 00:29:26;;;;;;;5.20;2.70;;;;;;;;;;5002085;28;20018;-64
2022/04/30 00:31:52;;;;;;;10.43;3.47;;;;;;;;;;5001957;28;20040;-64
2022/04/30 00:34:18;;;;;;;11.63;4.25;;;;;;;;;;5008728;28;20022;-63
2022/04/30 00:36:44;;;;;;;10.55;4.00;;;;;;;;;;5002040;28;20407;-65
2022/04/30 00:39:09;;;;;;;12.70;4.38;;;;;;;;;;5007184;28;20463;-65
2022/04/30 00:41:36;;;;;;;11.57;4.65;;;;;;;;;;5006809;28;20030;-65
2022/04/30 00:44:01;;;;;;;11.40;4.22;;;;;;;;;;5005275;28;20030;-64
2022/04/30 00:46:27;;;;;;;12.88;4.53;;;;;;;;;;5007382;28;20109;-64
2022/04/30 00:48:53;;;;;;;14.20;4.30;;;;;;;;;;5006323;28;20419;-64
2022/04/30 00:51:21;;;;;;;8.80;3.42;;;;;;;;;;5005728;28;20026;-63
2022/04/30 00:53:48;;;;;;;8.82;3.15;;;;;;;;;;5007311;28;20040;-63
2022/04/30 00:56:17;;;;;;;11.18;3.47;;;;;;;;;;5006457;28;20137;-65
2022/04/30 00:58:45;;;;;;;7.28;2.85;;;;;;;;;;5005076;28;20030;-64
2022/04/30 01:01:11;;;;;;;7.95;2.30;;;;;;;;;;5003920;28;20014;-64
2022/04/30 01:03:36;;;;;;;9.90;2.70;;;;;;;;;;4996952;28;20026;-64
2022/04/30 01:06:04;;;;;;;6.10;2.55;;;;;;;;;;5001114;28;20026;-64
2022/04/30 01:08:30;;;;;;;8.10;3.20;;;;;;;;;;5005253;28;20541;-65
2022/04/30 01:11:06;;;;;;;5.57;2.35;;;;;;;;;;5006991;28;20034;-64
2022/04/30 01:13:36;;;;;;;4.47;2.10;;;;;;;;;;5006662;28;20025;-64
2022/04/30 01:16:06;;;;;;;;;;;;;;;;;;5006227;28;20037;-65
2022/04/30 01:18:36;;;;;;;7.80;2.40;;;;;;;;;;5007635;28;19932;-64
2022/04/30 01:21:10;;;;;;;5.63;2.50;;;;;;;;;;5006777;28;20295;-64
2022/04/30 01:23:36;;;;;;;5.90;2.30;;;;;;;;;;5008907;28;20018;-65
2022/04/30 01:26:03;;;;;;;13.52;2.58;;;;;;;;;;5005289;28;20034;-63
2022/04/30 01:28:29;;;;;;;4.18;2.10;;;;;;;;;;5005154;28;20026;-64
2022/04/30 01:30:55;;;;;;;7.43;2.60;;;;;;;;;;5006684;28;20053;-64
2022/04/30 01:38:49;;;;;;;5.75;2.50;;;;;;;;;;5006245;28;20116;-64
2022/04/30 01:41:15;;;;;;;6.20;2.58;;;;;;;;;;5005378;28;20084;-64
2022/04/30 01:43:41;;;;;;;6.40;2.60;;;;;;;;;;5004654;28;20443;-64
2022/04/30 01:46:07;;;;;;;4.65;2.38;;;;;;;;;;5004918;28;20068;-63
2022/04/30 01:48:33;;;;;;;4.78;2.50;;;;;;;;;;5004368;28;20399;-64
2022/04/30 01:50:59;;;;;;;7.65;2.25;;;;;;;;;;5006187;28;20030;-64
2022/04/30 01:53:25;;;;;;;4.65;2.42;;;;;;;;;;5004565;28;20411;-64
2022/04/30 01:55:51;;;;;;;9.65;2.90;;;;;;;;;;5005080;28;20025;-64
2022/04/30 01:58:16;;;;;;;6.65;2.42;;;;;;;;;;5006015;28;20019;-65
2022/04/30 02:00:43;;;;;;;4.90;2.50;;;;;;;;;;5006045;28;20384;-64
2022/04/30 02:03:10;;;;;;;12.32;4.95;;;;;;;;;;5004119;28;20037;-64
2022/04/30 02:05:37;;;;;;;13.70;6.38;;;;;;;;;;5003724;28;20022;-65
2022/04/30 02:08:09;;;;;;;10.57;5.18;;;;;;;;;;5006102;28;20113;-65
2022/04/30 02:10:39;;;;;;;10.07;5.28;;;;;;;;;;5005204;28;20034;-65
2022/04/30 02:13:09;;;;;;;8.25;4.28;;;;;;;;;;5004062;28;20068;-65
2022/04/30 02:15:40;;;;;;;6.55;3.20;;;;;;;;;;5004365;28;20030;-64
2022/04/30 02:18:10;;;;;;;8.27;3.85;;;;;;;;;;5004241;28;20026;-65
2022/04/30 02:20:39;;;;;;;8.10;3.70;;;;;;;;;;5006343;28;20037;-64
2022/04/30 02:23:08;;;;;;;6.30;3.25;;;;;;;;;;5004165;28;20814;-65
2022/04/30 02:25:33;;;;;;;4.88;2.90;;;;;;;;;;5004149;28;20036;-65
2022/04/30 02:28:04;;;;;;;10.80;2.78;;;;;;;;;;5005680;28;20026;-65
2022/04/30 02:30:31;;;;;;;7.38;3.00;;;;;;;;;;5004481;28;20382;-64
2022/04/30 02:33:03;;;;;;;10.40;2.90;;;;;;;;;;5003664;28;20495;-65
2022/04/30 02:35:30;;;;;;;7.18;3.00;;;;;;;;;;5004021;28;20022;-64
2022/04/30 02:37:59;;;;;;;5.50;2.53;;;;;;;;;;5003717;28;20064;-64
2022/04/30 02:40:26;;;;;;;6.35;3.10;;;;;;;;;;5003204;28;20396;-65
2022/04/30 02:42:52;;;;;;;6.07;2.72;;;;;;;;;;5004249;28;20097;-63
2022/04/30 02:45:19;;;;;;;8.30;2.97;;;;;;;;;;5005283;28;20041;-64
2022/04/30 02:47:48;;;;;;;8.45;3.35;;;;;;;;;;5003461;28;20118;-65
2022/04/30 02:50:18;;;;;;;3.92;2.50;;;;;;;;;;5003823;28;20022;-64
2022/04/30 02:52:43;;;;;;;6.33;2.70;;;;;;;;;;5011551;28;20026;-64
2022/04/30 02:55:11;;;;;;;5.50;2.67;;;;;;;;;;5013018;28;20471;-64
2022/04/30 03:00:40;;;;;;;4.97;2.88;;;;;;;;;;5013619;28;20041;-65
2022/04/30 03:03:07;;;;;;;4.55;2.05;;;;;;;;;;5014124;28;20033;-65
2022/04/30 03:05:35;;;;;;;7.78;3.00;;;;;;;;;;5004864;28;20480;-65
2022/04/30 03:08:06;;;;;;;6.03;2.90;;;;;;;;;;5002872;28;20030;-65
2022/04/30 03:10:32;;;;;;;6.05;2.85;;;;;;;;;;5003337;28;20103;-64
2022/04/30 03:12:57;;;;;;;4.88;2.65;;;;;;;;;;5004759;28;20022;-64
2022/04/30 03:15:25;;;;;;;5.60;2.67;;;;;;;;;;5003378;28;20069;-65
2022/04/30 03:23:19;;;;;;;4.25;2.30;;;;;;;;;;5004770;28;20029;-65
2022/04/30 03:25:44;;;;;;;5.82;2.72;;;;;;;;;;5003871;28;20018;-65
2022/04/30 03:28:10;;;;;;;10.15;2.80;;;;;;;;;;5004076;28;20106;-65
2022/04/30 03:30:36;;;;;;;6.05;2.90;;;;;;;;;;5002389;28;20026;-65
2022/04/30 03:33:02;;;;;;;8.77;3.00;;;;;;;;;;5004162;28;20096;-65
2022/04/30 03:35:28;;;;;;;9.13;2.83;;;;;;;;;;4999240;28;20022;-65
2022/04/30 03:37:54;;;;;;;6.55;3.20;;;;;;;;;;4993609;28;20109;-65
2022/04/30 03:40:22;;;;;;;6.57;3.13;;;;;;;;;;4994020;28;20085;-65
2022/04/30 03:42:48;;;;;;;7.60;3.00;;;;;;;;;;4993841;28;20029;-65
2022/04/30 03:45:14;;;;;;;9.02;3.45;;;;;;;;;;4993955;28;20027;-65
2022/04/30 03:47:40;;;;;;;7.20;3.22;;;;;;;;;;4993860;28;20026;-65
2022/04/30 03:50:07;;;;;;;5.68;3.22;;;;;;;;;;4993849;28;20030;-64
2022/04/30 03:52:33;;;;;;;7.10;3.20;;;;;;;;;;4993620;28;20034;-65
2022/04/30 03:54:59;;;;;;;7.25;3.28;;;;;;;;;;4993859;28;20113;-65
2022/04/30 03:57:25;;;;;;;6.93;3.58;;;;;;;;;;4993873;28;20114;-65
2022/04/30 03:59:51;;;;;;;7.53;3.35;;;;;;;;;;4993824;28;20443;-65
2022/04/30 04:02:18;;;;;;;9.70;3.80;;;;;;;;;;4993355;28;20034;-65
2022/04/30 04:04:44;;;;;;;5.85;3.53;;;;;;;;;;4993704;28;20029;-64
2022/04/30 04:07:10;;;;;;;8.68;3.33;;;;;;;;;;4993460;28;20022;-66
2022/04/30 04:09:36;;;;;;;11.43;3.47;;;;;;;;;;4993612;28;20025;-65
2022/04/30 04:12:02;;;;;;;7.60;3.70;;;;;;;;;;4993516;28;20450;-65
2022/04/30 04:19:55;;;;;;;10.07;3.88;;;;;;;;;;4995907;28;20049;-65
2022/04/30 04:22:22;;;;;;;7.18;3.42;;;;;;;;;;5012498;28;20064;-65
2022/04/30 04:27:32;;;;;;;7.75;3.88;;;;;;;;;;5012874;28;20088;-63
2022/04/30 04:29:57;;;;;;;11.10;4.53;;;;;;;;;;5013083;28;20026;-65
2022/04/30 04:32:24;;;;;;;9.02;4.07;;;;;;;;;;5012876;28;20049;-65
2022/04/30 04:34:50;;;;;;;7.82;4.00;;;;;;;;;;5012922;28;20105;-65
2022/04/30 04:37:15;;;;;;;11.40;4.07;;;;;;;;;;5012567;28;20078;-64
2022/04/30 04:39:41;;;;;;;7.15;3.85;;;;;;;;;;5012937;28;20034;-65
2022/04/30 04:42:07;;;;;;;9.73;4.30;;;;;;;;;;5012698;28;20021;-65
2022/04/30 04:44:34;;;;;;;7.80;3.83;;;;;;;;;;5012753;28;20033;-65
2022/04/30 04:47:00;;;;;;;10.43;4.03;;;;;;;;;;5012626;28;20026;-65
2022/04/30 04:49:27;;;;;;;9.60;4.13;;;;;;;;;;5012652;28;20072;-64
2022/04/30 04:51:52;;;;;;;12.77;6.07;;;;;;;;;;5012704;28;20129;-64
2022/04/30 04:54:18;;;;;;;9.00;4.47;;;;;;;;;;5012738;28;20515;-66
2022/04/30 04:56:44;;;;;;;11.45;4.70;;;;;;;;;;5012822;28;20471;-64
2022/04/30 04:59:09;;;;;;;7.72;4.60;;;;;;;;;;5012728;28;20071;-65
2022/04/30 05:01:36;;;;;;;7.50;3.95;;;;;;;;;;5012513;28;20038;-64
2022/04/30 05:04:03;;;;;;;11.65;4.32;;;;;;;;;;5012533;28;20022;-65
2022/04/30 05:06:28;;;;;;;9.25;4.30;;;;;;;;;;5012646;28;20022;-65
2022/04/30 05:08:54;;;;;;;8.10;4.30;;;;;;;;;;5012611;28;20076;-64
2022/04/30 05:11:19;;;;;;;11.82;4.45;;;;;;;;;;5012545;28;20502;-65
2022/04/30 05:13:44;;;;;;;7.05;4.30;;;;;;;;;;5012535;28;20136;-64
2022/04/30 05:16:10;;;;;;;15.55;6.60;;;;;;;;;;5012583;28;20053;-63
2022/04/30 05:18:35;;;;;;;8.52;4.80;;;;;;;;;;5012200;28;20109;-65
2022/04/30 05:21:01;;;;;;;9.10;4.63;;;;;;;;;;5012271;28;20030;-65
2022/04/30 05:23:26;;;;;;;9.25;5.28;;;;;;;;;;5012492;28;20030;-64
2022/04/30 05:25:53;;;;;;;10.52;4.65;;;;;;;;;;5016037;28;20117;-65
2022/04/30 05:28:18;;;;;;;10.45;4.53;;;;;;;;;;5016097;28;20028;-66
2022/04/30 05:30:44;;;;;;;8.30;4.38;;;;;;;;;;5015960;28;20108;-64
2022/04/30 05:33:09;;;;;;;10.10;4.30;;;;;;;;;;5015766;28;20057;-64
2022/04/30 05:35:35;;;;;;;12.75;4.78;;;;;;;;;;5015959;28;20026;-64
2022/04/30 05:38:00;;;;;;;9.77;4.13;;;;;;;;;;5015789;28;20072;-65
2022/04/30 05:40:26;;;;;;;11.73;4.38;;;;;;;;;;5015894;28;20061;-65
2022/04/30 05:42:51;;;;;;;12.32;4.65;;;;;;;;;;5015850;28;20491;-65
2022/04/30 05:45:17;;;;;;;8.57;4.40;;;;;;;;;;5015756;28;20026;-64
2022/04/30 05:47:42;;;;;;;12.15;4.53;;;;;;;;;;5015601;28;20413;-65
2022/04/30 05:50:09;;;;;;;17.40;4.45;;;;;;;;;;5015732;28;20029;-64
2022/04/30 05:52:34;;;;;;;12.45;4.70;;;;;;;;;;5015607;28;20034;-65
2022/04/30 05:55:04;;;;;;;14.70;5.07;;;;;;;;;;5014361;28;20056;-64
2022/04/30 05:57:30;;;;;;;13.98;5.35;;;;;;;;;;5015579;28;20026;-64
2022/04/30 05:59:56;;;;;;;7.47;4.88;;;;;;;;;;5015543;28;20031;-65
2022/04/30 06:02:23;;;;;;;11.43;5.03;;;;;;;;;;5015102;28;20033;-65
2022/04/30 06:04:49;;;;;;;15.40;5.15;;;;;;;;;;5015487;28;20030;-65
2022/04/30 06:07:15;;;;;;;18.27;5.63;;;;;;;;;;5015049;28;20034;-65
2022/04/30 06:09:40;;;;;;;14.25;5.20;;;;;;;;;;5015414;28;20084;-65
2022/04/30 06:12:06;;;;;;;15.00;5.32;;;;;;;;;;5015163;28;20105;-63
2022/04/30 06:14:32;;;;;;;11.48;4.85;;;;;;;;;;5015255;28;20057;-63
2022/04/30 06:17:00;;;;;;;12.13;5.32;;;;;;;;;;5014939;28;20447;-63
2022/04/30 06:19:26;;;;;;;11.43;5.00;;;;;;;;;;5015052;28;20468;-63
2022/04/30 06:21:53;;;;;;;11.95;4.90;;;;;;;;;;5014648;28;20038;-63
2022/04/30 06:24:19;;;;;;;12.18;4.60;;;;;;;;;;5014469;28;20114;-63
2022/04/30 06:26:44;;;;;;;10.40;4.57;;;;;;;;;;5015638;28;20156;-62
2022/04/30 06:29:10;;;;;;;8.57;4.82;;;;;;;;;;5028879;28;20029;-65
2022/04/30 06:31:36;;;;;;;8.15;3.97;;;;;;;;;;5034355;28;20033;-64
2022/04/30 06:34:02;;;;;;;9.75;4.38;;;;;;;;;;5034619;28;20109;-64
2022/04/30 06:36:28;;;;;;;10.07;4.97;;;;;;;;;;5034243;28;20164;-65
2022/04/30 06:38:54;;;;;;;15.60;5.40;;;;;;;;;;5034446;28;20033;-64
2022/04/30 06:41:21;;;;;;;13.98;5.63;;;;;;;;;;5034359;28;20037;-64
2022/04/30 06:43:48;;;;;;;8.43;4.80;;;;;;;;;;5034428;28;20033;-64
2022/04/30 06:46:14;;;;;;;8.45;4.70;;;;;;;;;;5034220;28;20027;-64
2022/04/30 06:48:40;;;;;;;11.50;5.35;;;;;;;;;;5034381;28;20105;-64
2022/04/30 06:51:05;;;;;;;11.27;5.15;;;;;;;;;;5034280;28;20037;-63
2022/04/30 06:59:04;;;;;;;11.68;4.88;;;;;;;;;;5034360;28;20028;-64
2022/04/30 07:04:06;;;;;;;9.13;5.03;;;;;;;;;;5005239;28;20057;-62
2022/04/30 07:06:35;;;;;;;13.38;5.10;;;;;;;;;;5008712;28;20088;-64
2022/04/30 07:09:02;;;;;;;9.52;4.97;;;;;;;;;;5014262;28;20062;-64
2022/04/30 07:11:28;;;;;;;12.60;5.47;;;;;;;;;;5013971;28;20030;-64
2022/04/30 07:13:53;;;;;;;14.25;5.35;;;;;;;;;;5013993;28;20030;-63
2022/04/30 07:16:19;;;;;;;13.30;5.32;;;;;;;;;;5013893;28;20030;-64
2022/04/30 07:18:45;;;;;;;11.32;5.82;;;;;;;;;;5003654;28;20023;-64
2022/04/30 07:21:11;;;;;;;11.98;5.20;;;;;;;;;;5010772;28;20542;-63
2022/04/30 07:23:36;;;;;;;14.75;5.68;;;;;;;;;;5013721;28;20171;-64
2022/04/30 07:26:02;;;;;;;15.05;5.47;;;;;;;;;;5013892;28;20434;-64
2022/04/30 07:28:33;;;;;;;10.55;5.32;;;;;;;;;;5010814;28;20474;-63
2022/04/30 07:30:59;;;;;;;14.48;5.63;;;;;;;;;;5013244;28;20032;-64
2022/04/30 07:33:24;;;;;;;9.13;5.13;;;;;;;;;;5013630;28;20029;-66
2022/04/30 07:35:50;;;;;;;21.45;6.13;;;;;;;;;;5013323;28;20033;-64
2022/04/30 07:38:15;;;;;;;11.20;5.55;;;;;;;;;;5013443;28;20030;-64
2022/04/30 07:40:41;;;;;;;14.20;5.60;;;;;;;;;;5012980;28;20030;-64
2022/04/30 07:43:06;;;;;;;15.05;5.60;;;;;;;;;;5013542;28;20050;-63
2022/04/30 07:45:32;;;;;;;9.23;5.10;;;;;;;;;;5012982;28;20022;-64
2022/04/30 07:47:57;;;;;;;9.90;5.28;;;;;;;;;;5012575;28;20077;-63
2022/04/30 07:50:25;;;;;;;11.60;5.45;;;;;;;;;;5012472;28;20457;-65
2022/04/30 07:52:50;;;;;;;14.05;5.38;;;;;;;;;;5013143;28;20525;-65
2022/04/30 07:55:16;;;;;;;15.00;5.05;;;;;;;;;;5013134;28;20026;-65
2022/04/30 07:57:41;;;;;;;10.32;5.18;;;;;;;;;;5013156;28;20113;-65
2022/04/30 08:00:07;;;;;;;13.68;5.13;;;;;;;;;;5012827;28;20112;-64
2022/04/30 08:02:33;;;;;;;13.55;4.80;;;;;;;;;;5012894;28;20033;-64
2022/04/30 08:05:01;;;;;;;10.93;5.10;;;;;;;;;;5013116;28;20475;-65
2022/04/30 08:07:26;;;;;;;14.02;5.40;;;;;;;;;;5011459;28;20026;-62
2022/04/30 08:09:52;;;;;;;13.23;5.00;;;;;;;;;;5012853;28;20026;-64
2022/04/30 08:12:18;;;;;;;9.63;5.03;;;;;;;;;;5012921;28;20021;-65
2022/04/30 08:14:44;;;;;;;8.88;5.15;;;;;;;;;;5012773;28;20500;-64
2022/04/30 08:17:11;;;;;;;11.35;5.00;;;;;;;;;;5012925;28;20045;-64
2022/04/30 08:19:37;;;;;;;8.80;4.88;;;;;;;;;;5012827;28;20030;-64
2022/04/30 08:22:02;;;;;;;12.68;6.22;;;;;;;;;;5012494;28;20048;-64
2022/04/30 08:24:28;;;;;;;9.32;5.38;;;;;;;;;;5012755;28;20034;-65
2022/04/30 08:26:53;;;;;;;7.60;4.78;;;;;;;;;;5012575;28;20109;-64
2022/04/30 08:29:19;;;;;;;18.10;5.15;;;;;;;;;;5012545;28;20031;-65
2022/04/30 08:31:44;;;;;;;8.50;4.80;;;;;;;;;;5012456;28;20061;-65
2022/04/30 08:34:10;;;;;;;11.52;4.78;;;;;;;;;;5012675;28;20040;-64
2022/04/30 08:36:35;;;;;;;10.43;5.15;;;;;;;;;;5012456;28;20045;-64
2022/04/30 08:39:01;;;;;;;10.27;4.63;;;;;;;;;;5012695;28;20392;-65
2022/04/30 08:41:27;;;;;;;14.70;4.72;;;;;;;;;;5012367;28;20030;-64
2022/04/30 08:43:52;;;;;;;10.82;4.50;;;;;;;;;;5012814;28;20117;-64
2022/04/30 08:46:19;;;;;;;11.85;4.82;;;;;;;;;;5012646;28;20486;-64
2022/04/30 08:48:46;;;;;;;13.40;4.90;;;;;;;;;;5012658;28;20033;-63
2022/04/30 08:51:12;;;;;;;8.25;4.72;;;;;;;;;;5010693;28;20065;-64
2022/04/30 08:53:38;;;;;;;10.38;5.20;;;;;;;;;;5012413;28;20061;-62
2022/04/30 08:56:07;;;;;;;13.13;5.55;;;;;;;;;;5012291;28;20115;-63
2022/04/30 08:58:33;;;;;;;9.67;4.77;;;;;;;;;;5014725;28;20029;-64
2022/04/30 09:01:01;;;;;;;9.50;5.03;;;;;;;;;;5016272;28;20029;-65
2022/04/30 09:03:27;;;;;;;9.82;5.22;;;;;;;;;;5016544;28;20053;-63
2022/04/30 09:05:58;;;;;;;11.10;5.32;;;;;;;;;;5016127;28;20483;-63
2022/04/30 09:08:23;;;;;;;14.18;5.05;;;;;;;;;;5015825;28;20030;-64
2022/04/30 09:10:49;;;;;;;10.38;4.72;;;;;;;;;;5015953;28;20117;-64
2022/04/30 09:13:16;;;;;;;10.93;4.68;;;;;;;;;;5016247;28;20053;-66
2022/04/30 09:15:46;;;;;;;9.85;4.70;;;;;;;;;;5015954;28;20045;-66
2022/04/30 09:18:15;;;;;;;;;;;;;;;;;;5016322;28;20036;-64
2022/04/30 09:20:50;;;;;;;11.88;5.00;;;;;;;;;;5015752;28;20350;-65
2022/04/30 09:23:27;;;;;;;8.73;4.07;;;;;;;;;;5015954;28;20140;-65
2022/04/30 09:25:57;;;;;;;11.13;4.15;;;;;;;;;;5015536;28;20033;-65
2022/04/30 09:28:38;;;;;;;6.00;3.05;;;;;;;;;;5015892;28;20476;-65
2022/04/30 09:31:21;;;;;;;6.82;4.03;;;;;;;;;;5015939;28;20038;-63
2022/04/30 09:33:50;;;;;;;12.10;3.80;;;;;;;;;;5015842;28;20030;-64
2022/04/30 09:39:09;;;;;;;11.00;4.22;;;;;;;;;;5015848;28;20434;-64
2022/04/30 09:41:35;;;;;;;12.63;4.10;;;;;;;;;;5015377;28;20081;-64
2022/04/30 09:44:06;;;;;;;12.45;4.30;;;;;;;;;;5015683;28;20406;-64
2022/04/30 09:46:36;;;;;;;8.77;4.10;;;;;;;;;;5015200;28;20017;-65
2022/04/30 09:54:36;;;;;;;8.50;4.20;;;;;;;;;;5015532;28;20160;-65
2022/04/30 09:57:04;;;;;;;11.50;4.53;;;;;;;;;;5015413;28;20029;-65
2022/04/30 09:59:30;;;;;;;13.48;4.88;;;;;;;;;;5015535;28;20084;-66
2022/04/30 10:01:57;;;;;;;17.67;5.13;;;;;;;;;;5015193;28;20037;-66
2022/04/30 10:04:23;;;;;;;9.52;4.18;;;;;;;;;;5015297;28;20052;-66
2022/04/30 10:06:53;;;;;;;11.10;4.57;;;;;;;;;;5014873;28;20065;-65
2022/04/30 10:09:30;;;;;;;;;;;;;;;;;;5014750;28;20610;-65
2022/04/30 10:12:03;;;;;;;14.55;5.32;;;;;;;;;;5014970;28;19913;-65
2022/04/30 10:14:43;;;;;;;8.25;4.18;;;;;;;;;;5015107;28;20069;-65
2022/04/30 10:17:13;;;;;;;14.85;5.32;;;;;;;;;;5014979;28;20494;-66
2022/04/30 10:19:43;;;;;;;9.10;4.57;;;;;;;;;;5013712;28;20483;-65
2022/04/30 10:22:16;;;;;;;11.65;4.30;;;;;;;;;;5014783;28;20026;-65
2022/04/30 10:24:42;;;;;;;12.88;4.35;;;;;;;;;;5014281;28;20084;-65
2022/04/30 10:27:08;;;;;;;8.80;4.43;;;;;;;;;;5014873;28;20029;-66
2022/04/30 10:29:34;;;;;;;9.73;4.88;;;;;;;;;;5014807;28;20034;-65
2022/04/30 10:31:59;;;;;;;10.93;4.32;;;;;;;;;;5014211;28;20026;-65
2022/04/30 10:34:29;;;;;;;13.18;4.93;;;;;;;;;;5013768;28;20467;-66
2022/04/30 10:36:55;;;;;;;9.90;4.43;;;;;;;;;;5014139;28;20072;-66
2022/04/30 10:39:21;;;;;;;12.55;4.93;;;;;;;;;;5013694;28;20482;-65
2022/04/30 10:41:50;;;;;;;9.23;4.40;;;;;;;;;;5014232;28;20033;-65
2022/04/30 10:44:26;;;;;;;7.50;4.50;;;;;;;;;;5014371;28;20026;-65
2022/04/30 10:46:52;;;;;;;11.63;4.43;;;;;;;;;;5014422;28;20049;-65
2022/04/30 10:49:18;;;;;;;9.43;4.65;;;;;;;;;;5014172;28;20033;-64
2022/04/30 10:51:45;;;;;;;13.25;4.70;;;;;;;;;;5014010;28;20501;-65
2022/04/30 10:54:13;;;;;;;10.18;4.50;;;;;;;;;;5013924;28;20533;-64
2022/04/30 10:56:39;;;;;;;11.18;5.30;;;;;;;;;;5014476;28;20029;-65
2022/04/30 10:59:06;;;;;;;7.68;4.75;;;;;;;;;;5014151;28;20030;-65
2022/04/30 11:01:32;;;;;;;10.98;4.80;;;;;;;;;;5014133;28;20044;-64
2022/04/30 11:04:00;;;;;;;10.77;4.85;;;;;;;;;;5014144;28;20480;-64
2022/04/30 11:06:30;;;;;;;10.10;4.70;;;;;;;;;;5013897;28;20025;-63
2022/04/30 11:09:03;;;;;;;8.77;4.30;;;;;;;;;;5014284;28;20475;-65
2022/04/30 11:11:29;;;;;;;9.60;4.95;;;;;;;;;;5014169;28;20060;-64
2022/04/30 11:14:06;;;;;;;10.50;4.47;;;;;;;;;;5013970;28;20029;-64
2022/04/30 11:16:34;;;;;;;10.27;4.40;;;;;;;;;;5014421;28;20022;-65
2022/04/30 11:19:07;;;;;;;13.32;4.82;;;;;;;;;;5013968;28;20033;-65
2022/04/30 11:21:38;;;;;;;10.73;4.80;;;;;;;;;;5012631;28;20033;-65
2022/04/30 11:24:05;;;;;;;13.13;4.40;;;;;;;;;;5012569;28;20034;-65
2022/04/30 11:26:42;;;;;;;7.95;4.47;;;;;;;;;;5013744;28;20026;-65
2022/04/30 11:29:12;;;;;;;11.73;4.82;;;;;;;;;;5013669;28;20427;-65
2022/04/30 11:31:39;;;;;;;15.38;4.97;;;;;;;;;;5013785;28;20026;-65
2022/04/30 11:34:12;;;;;;;9.77;4.60;;;;;;;;;;5013759;28;20100;-64
2022/04/30 11:36:40;;;;;;;10.60;4.70;;;;;;;;;;5012184;28;20164;-65
2022/04/30 11:39:05;;;;;;;10.57;4.30;;;;;;;;;;5013638;28;20050;-65
2022/04/30 11:41:38;;;;;;;7.65;3.97;;;;;;;;;;5013516;28;20443;-65
2022/04/30 11:44:03;;;;;;;7.82;4.18;;;;;;;;;;5013438;28;20045;-64
2022/04/30 11:46:29;;;;;;;9.18;4.97;;;;;;;;;;5013262;28;20029;-64
2022/04/30 11:48:55;;;;;;;11.77;4.43;;;;;;;;;;5013433;28;20030;-65
2022/04/30 11:51:21;;;;;;;16.05;5.07;;;;;;;;;;5013272;28;20096;-65
2022/04/30 11:53:47;;;;;;;11.20;4.90;;;;;;;;;;5013419;28;20104;-65
2022/04/30 11:56:13;;;;;;;8.60;4.30;;;;;;;;;;5013571;28;20556;-65
2022/04/30 11:58:40;;;;;;;12.23;4.88;;;;;;;;;;5013563;28;20017;-66
2022/04/30 12:01:06;;;;;;;10.70;4.88;;;;;;;;;;5013259;28;20033;-65
2022/04/30 12:03:31;;;;;;;9.25;4.43;;;;;;;;;;5013455;28;20028;-64
2022/04/30 12:05:57;;;;;;;8.88;4.40;;;;;;;;;;5013245;28;20383;-65
2022/04/30 12:08:29;;;;;;;9.30;4.15;;;;;;;;;;5013229;28;20085;-63
2022/04/30 12:10:56;;;;;;;14.88;5.82;;;;;;;;;;5013163;28;20364;-64
2022/04/30 12:13:25;;;;;;;12.13;4.47;;;;;;;;;;5013089;28;20053;-64
2022/04/30 12:16:07;;;;;;;6.93;4.00;;;;;;;;;;5013348;28;20034;-64
2022/04/30 12:26:58;;;;;;;7.57;3.88;;;;;;;;;;5013346;28;20367;-65
2022/04/30 12:29:25;;;;;;;9.55;4.03;;;;;;;;;;5013066;28;20053;-65
2022/04/30 12:31:51;;;;;;;11.02;3.95;;;;;;;;;;5012901;28;20036;-65
2022/04/30 12:34:22;;;;;;;8.60;3.80;;;;;;;;;;5012484;28;20022;-63
2022/04/30 12:36:52;;;;;;;10.65;3.97;;;;;;;;;;5012788;28;20073;-65
2022/04/30 12:39:18;;;;;;;10.23;3.95;;;;;;;;;;5013000;28;20117;-65
2022/04/30 12:41:44;;;;;;;12.25;3.50;;;;;;;;;;5012631;28;20030;-65
2022/04/30 12:44:09;;;;;;;8.82;3.85;;;;;;;;;;5012939;28;20084;-65
2022/04/30 12:46:35;;;;;;;8.75;3.40;;;;;;;;;;5012933;28;20530;-65
2022/04/30 12:49:01;;;;;;;5.85;3.58;;;;;;;;;;5012694;28;20022;-65
2022/04/30 12:51:26;;;;;;;6.80;3.47;;;;;;;;;;5012750;28;20092;-64
2022/04/30 12:53:52;;;;;;;6.97;3.60;;;;;;;;;;5012826;28;20467;-64
2022/04/30 12:56:18;;;;;;;5.70;3.58;;;;;;;;;;5012826;28;20061;-64
2022/04/30 12:58:44;;;;;;;10.57;4.30;;;;;;;;;;5012790;28;20065;-65
2022/04/30 13:01:09;;;;;;;7.70;3.13;;;;;;;;;;5012544;28;20079;-64
2022/04/30 13:03:35;;;;;;;12.27;3.65;;;;;;;;;;5012459;28;20387;-63
2022/04/30 13:06:02;;;;;;;8.75;4.10;;;;;;;;;;5012635;28;20125;-63
2022/04/30 13:13:55;;;;;;;12.45;6.00;;;;;;;;;;5012522;28;20030;-64
2022/04/30 13:16:21;;;;;;;11.57;6.72;;;;;;;;;;5012609;28;20025;-64
2022/04/30 13:18:47;;;;;;;14.40;7.88;;;;;;;;;;5012435;28;20113;-63
2022/04/30 13:21:13;;;;;;;18.15;8.40;;;;;;;;;;5012200;28;20041;-64
2022/04/30 13:23:39;;;;;;;17.48;7.65;;;;;;;;;;5012333;28;20459;-64
2022/04/30 13:26:05;;;;;;;21.65;7.70;;;;;;;;;;5012420;28;20026;-64
2022/04/30 13:28:31;;;;;;;16.10;7.57;;;;;;;;;;5012556;28;20087;-64
2022/04/30 13:30:56;;;;;;;12.23;8.02;;;;;;;;;;5012378;28;20109;-63
2022/04/30 13:33:22;;;;;;;11.23;5.43;;;;;;;;;;5012108;28;20022;-64
2022/04/30 13:35:48;;;;;;;10.60;5.35;;;;;;;;;;5012371;28;20029;-64
2022/04/30 13:38:15;;;;;;;11.40;5.20;;;;;;;;;;5012298;28;20022;-64
2022/04/30 13:40:40;;;;;;;12.52;5.47;;;;;;;;;;5012204;28;20076;-63
2022/04/30 13:43:07;;;;;;;11.43;6.40;;;;;;;;;;5012283;28;20029;-64
2022/04/30 13:45:32;;;;;;;11.57;6.18;;;;;;;;;;5014137;28;20093;-63
2022/04/30 13:47:58;;;;;;;17.23;6.40;;;;;;;;;;5015640;28;20109;-66
2022/04/30 13:50:23;;;;;;;12.55;5.40;;;;;;;;;;5015746;28;20147;-64
2022/04/30 13:52:50;;;;;;;8.63;4.78;;;;;;;;;;5015614;28;20064;-63
2022/04/30 13:55:15;;;;;;;5.90;3.92;;;;;;;;;;5015669;28;20045;-63
2022/04/30 13:57:41;;;;;;;8.05;3.65;;;;;;;;;;5015502;28;20383;-64
2022/04/30 14:00:12;;;;;;;10.25;5.00;;;;;;;;;;5015539;28;20253;-64
2022/04/30 14:02:39;;;;;;;5.85;3.47;;;;;;;;;;5015386;28;20558;-67
2022/04/30 14:05:05;;;;;;;9.02;4.18;;;;;;;;;;5015296;28;20504;-64
2022/04/30 14:07:30;;;;;;;11.93;4.93;;;;;;;;;;5015397;28;20095;-63
2022/04/30 14:09:56;;;;;;;11.60;5.15;;;;;;;;;;5015499;28;20455;-64
2022/04/30 14:12:21;;;;;;;10.25;4.57;;;;;;;;;;5014027;28;20056;-64
2022/04/30 14:14:56;;;;;;;11.40;5.10;;;;;;;;;;5015314;28;20025;-64
2022/04/30 14:20:07;;;;;;;8.57;4.30;;;;;;;;;;5015280;28;20116;-63
2022/04/30 14:22:35;;;;;;;9.70;3.10;;;;;;;;;;5014809;28;20489;-62
2022/04/30 14:25:01;;;;;;;7.35;3.20;;;;;;;;;;5015089;28;20456;-64
2022/04/30 14:27:27;;;;;;;9.68;3.20;;;;;;;;;;5014918;28;20057;-64
2022/04/30 14:29:53;;;;;;;8.85;3.50;;;;;;;;;;5014857;28;20057;-64
2022/04/30 14:32:19;;;;;;;7.30;3.05;;;;;;;;;;5014817;28;20045;-63
2022/04/30 14:34:45;;;;;;;7.90;3.42;;;;;;;;;;5014901;28;20540;-64
2022/04/30 14:37:11;;;;;;;7.13;3.90;;;;;;;;;;5014706;28;20045;-64
2022/04/30 14:39:37;;;;;;;7.13;3.30;;;;;;;;;;5014770;28;20041;-64
2022/04/30 14:42:03;;;;;;;8.85;3.47;;;;;;;;;;5014750;28;20034;-64
2022/04/30 14:44:30;;;;;;;6.80;2.67;;;;;;;;;;5014183;28;20022;-64
2022/04/30 14:46:56;;;;;;;6.65;2.45;;;;;;;;;;5014602;28;20490;-63
2022/04/30 14:49:22;;;;;;;6.97;2.92;;;;;;;;;;5014652;28;20034;-64
2022/04/30 14:51:48;;;;;;;4.13;2.30;;;;;;;;;;5014538;28;20093;-64
2022/04/30 14:54:13;;;;;;;6.47;3.10;;;;;;;;;;5014582;28;20025;-64
2022/04/30 14:56:42;;;;;;;6.93;2.97;;;;;;;;;;5014438;28;20026;-64
2022/04/30 14:59:08;;;;;;;7.75;3.58;;;;;;;;;;5014136;28;20026;-64
2022/04/30 15:01:34;;;;;;;16.27;3.20;;;;;;;;;;5014257;28;20030;-64
2022/04/30 15:04:00;;;;;;;4.82;2.65;;;;;;;;;;5014267;28;20112;-64
2022/04/30 15:06:26;;;;;;;6.82;3.08;;;;;;;;;;5014185;28;20037;-64
2022/04/30 15:08:51;;;;;;;11.50;3.20;;;;;;;;;;5014163;28;20030;-63
2022/04/30 15:11:17;;;;;;;7.32;2.80;;;;;;;;;;5014131;28;20037;-63
2022/04/30 15:13:42;;;;;;;6.93;2.60;;;;;;;;;;5013747;28;20057;-63
2022/04/30 15:16:08;;;;;;;5.13;2.40;;;;;;;;;;5014037;28;20112;-63
2022/04/30 15:18:33;;;;;;;6.35;2.20;;;;;;;;;;5012672;28;20474;-64
2022/04/30 15:20:59;;;;;;;8.32;2.28;;;;;;;;;;5013652;28;20029;-64
2022/04/30 15:23:24;;;;;;;10.23;2.38;;;;;;;;;;5013642;28;20033;-63
2022/04/30 15:25:53;;;;;;;8.00;2.47;;;;;;;;;;5013997;28;20037;-63
2022/04/30 15:28:19;;;;;;;8.63;3.53;;;;;;;;;;5013509;28;20069;-65
2022/04/30 15:30:44;;;;;;;8.35;3.60;;;;;;;;;;5013865;28;20448;-65